createdAt,value
2022-11-02T00:00:32.132Z,87.03
2022-11-02T00:03:00.007Z,86.92
2022-11-02T00:05:29.135Z,86.95
2022-11-02T00:07:56.838Z,86.89
2022-11-02T00:10:25.895Z,87.19
2022-11-02T00:12:54.115Z,86.89
2022-11-02T00:15:22.704Z,87.15
2022-11-02T00:17:54.517Z,86.86
2022-11-02T00:20:22.398Z,86.93
2022-11-02T00:22:54.753Z,87.44
2022-11-02T00:25:24.260Z,87.31
2022-11-02T00:27:52.247Z,87.51
2022-11-02T00:30:19.954Z,87.45
2022-11-02T00:32:47.761Z,87.24
2022-11-02T00:35:15.968Z,87.06
2022-11-02T00:37:43.664Z,86.99
2022-11-02T00:40:13.492Z,87.00
2022-11-02T00:42:41.182Z,87.26
2022-11-02T00:45:10.173Z,87.10
2022-11-02T00:47:38.219Z,87.48
2022-11-02T00:50:07.174Z,87.66
2022-11-02T00:52:34.952Z,87.31
2022-11-02T00:55:02.812Z,87.27
2022-11-02T00:57:31.921Z,87.44
2022-11-02T01:00:00.122Z,87.39
2022-11-02T01:02:28.154Z,87.33
2022-11-02T01:04:56.006Z,86.93
2022-11-02T01:07:23.786Z,87.04
2022-11-02T01:09:51.624Z,86.84
2022-11-02T01:12:19.365Z,86.85
2022-11-02T01:14:48.980Z,87.32
2022-11-02T01:17:17.426Z,87.03
2022-11-02T01:19:45.286Z,87.11
2022-11-02T01:22:13.013Z,87.08
2022-11-02T01:24:40.775Z,86.98
2022-11-02T01:27:08.582Z,87.63
2022-11-02T01:29:36.352Z,87.12
2022-11-02T01:32:05.918Z,87.28
2022-11-02T01:34:33.651Z,87.28
2022-11-02T01:37:19.818Z,87.21
2022-11-02T01:39:48.098Z,87.13
2022-11-02T01:42:21.518Z,87.56
2022-11-02T01:44:49.455Z,87.53
2022-11-02T01:47:23.242Z,87.74
2022-11-02T01:49:54.620Z,87.82
2022-11-02T01:52:26.608Z,88.02
2022-11-02T01:54:56.959Z,87.93
2022-11-02T01:57:28.232Z,87.70
2022-11-02T02:00:01.048Z,87.34
2022-11-02T02:02:30.870Z,87.67
2022-11-02T02:05:03.769Z,87.46
2022-11-02T02:07:32.839Z,87.45
2022-11-02T02:10:01.477Z,87.30
2022-11-02T02:12:31.132Z,87.53
2022-11-02T02:15:00.380Z,87.56
2022-11-02T02:17:42.062Z,86.97
2022-11-02T02:20:18.753Z,86.91
2022-11-02T02:23:34.116Z,86.90
2022-11-02T02:26:54.452Z,86.24
2022-11-02T02:29:29.468Z,86.64
2022-11-02T02:32:02.310Z,86.89
2022-11-02T02:34:37.913Z,87.55
2022-11-02T02:37:11.373Z,87.75
2022-11-02T02:39:44.031Z,88.17
2022-11-02T02:42:16.875Z,88.41
2022-11-02T02:44:55.349Z,88.33
2022-11-02T02:47:28.297Z,88.65
2022-11-02T02:50:02.635Z,88.94
2022-11-02T02:52:32.757Z,88.52
2022-11-02T02:55:02.578Z,88.38
2022-11-02T02:57:32.561Z,88.46
2022-11-02T03:00:01.829Z,88.58
2022-11-02T03:02:33.755Z,88.77
2022-11-02T03:05:01.540Z,88.16
2022-11-02T03:07:33.958Z,88.07
2022-11-02T03:10:08.810Z,88.45
2022-11-02T03:12:46.563Z,88.08
2022-11-02T03:15:21.651Z,87.36
2022-11-02T03:18:02.373Z,87.60
2022-11-02T03:20:40.043Z,87.47
2022-11-02T03:23:13.675Z,87.24
2022-11-02T03:25:52.463Z,87.22
2022-11-02T03:28:29.873Z,86.70
2022-11-02T03:31:05.301Z,86.31
2022-11-02T03:33:37.773Z,86.71
2022-11-02T03:36:09.771Z,86.72
2022-11-02T03:38:45.774Z,86.37
2022-11-02T03:41:15.545Z,86.71
2022-11-02T03:43:44.543Z,86.68
2022-11-02T03:46:16.249Z,86.23
2022-11-02T03:48:48.971Z,86.66
2022-11-02T03:51:21.662Z,87.03
2022-11-02T03:53:54.879Z,86.87
2022-11-02T03:56:27.681Z,86.99
2022-11-02T03:58:55.539Z,86.85
2022-11-02T04:01:27.257Z,87.25
2022-11-02T04:03:55.028Z,87.30
2022-11-02T04:06:23.477Z,86.47
2022-11-02T04:08:51.322Z,86.17
2022-11-02T04:11:36.492Z,86.46
2022-11-02T04:14:30.202Z,85.90
2022-11-02T04:17:13.247Z,85.10
2022-11-02T04:19:44.218Z,84.79
2022-11-02T04:22:32.977Z,84.58
2022-11-02T04:25:18.756Z,84.42
2022-11-02T04:27:48.886Z,83.82
2022-11-02T04:30:18.424Z,84.63
2022-11-02T04:33:06.843Z,84.00
2022-11-02T04:35:35.726Z,84.59
2022-11-02T04:38:21.527Z,84.07
2022-11-02T04:40:51.025Z,83.59
2022-11-02T04:43:18.780Z,83.82
2022-11-02T04:45:46.626Z,83.87
2022-11-02T04:48:15.804Z,85.25
2022-11-02T04:50:43.514Z,84.88
2022-11-02T04:53:11.230Z,84.82
2022-11-02T04:55:38.995Z,85.90
2022-11-02T04:58:06.999Z,85.21
2022-11-02T05:00:34.975Z,85.58
2022-11-02T05:03:03.908Z,86.56
2022-11-02T05:05:34.899Z,86.41
2022-11-02T05:08:03.243Z,86.98
2022-11-02T05:10:31.421Z,86.96
2022-11-02T05:12:59.729Z,87.43
2022-11-02T05:15:27.823Z,87.89
2022-11-02T05:17:55.657Z,88.10
2022-11-02T05:20:23.557Z,89.29
2022-11-02T05:22:52.714Z,90.07
2022-11-02T05:25:20.464Z,89.18
2022-11-02T05:27:48.248Z,89.72
2022-11-02T05:30:16.272Z,89.98
2022-11-02T05:32:44.088Z,90.59
2022-11-02T05:35:11.949Z,91.18
2022-11-02T05:37:39.778Z,90.45
2022-11-02T05:40:10.205Z,91.02
2022-11-02T05:42:38.000Z,90.66
2022-11-02T05:45:06.398Z,90.88
2022-11-02T05:47:34.971Z,91.84
2022-11-02T05:50:02.964Z,90.92
2022-11-02T05:52:30.921Z,91.12
2022-11-02T05:54:58.694Z,90.79
2022-11-02T05:57:27.818Z,90.26
2022-11-02T05:59:55.616Z,90.33
2022-11-02T06:02:25.440Z,89.96
2022-11-02T06:04:53.518Z,89.75
2022-11-02T06:07:21.349Z,89.47
2022-11-02T06:09:49.199Z,88.70
2022-11-02T06:12:17.223Z,89.39
2022-11-02T06:14:46.658Z,89.37
2022-11-02T06:17:14.413Z,89.14
2022-11-02T06:19:42.192Z,88.96
2022-11-02T06:22:09.956Z,89.31
2022-11-02T06:24:37.755Z,89.82
2022-11-02T06:27:05.579Z,90.77
2022-11-02T06:29:33.545Z,90.40
2022-11-02T06:32:02.937Z,90.11
2022-11-02T06:34:30.700Z,89.18
2022-11-02T06:36:58.584Z,88.88
2022-11-02T06:39:26.542Z,88.24
2022-11-02T06:41:54.343Z,88.21
2022-11-02T06:44:22.246Z,87.90
2022-11-02T06:46:50.676Z,87.77
2022-11-02T06:49:20.299Z,87.58
2022-11-02T06:51:48.210Z,87.90
2022-11-02T06:54:15.968Z,87.11
2022-11-02T06:56:43.793Z,87.32
2022-11-02T06:59:11.702Z,87.91
2022-11-02T07:01:39.650Z,88.14
2022-11-02T07:04:07.717Z,87.66
2022-11-02T07:06:36.874Z,88.13
2022-11-02T07:09:05.007Z,88.17
2022-11-02T07:11:33.183Z,88.50
2022-11-02T07:14:01.076Z,87.58
2022-11-02T07:16:28.884Z,87.74
2022-11-02T07:18:56.738Z,86.80
2022-11-02T07:21:24.592Z,86.80
2022-11-02T07:23:53.848Z,86.34
2022-11-02T07:26:21.677Z,86.81
2022-11-02T07:28:49.564Z,86.50
2022-11-02T07:31:17.361Z,85.88
2022-11-02T07:33:45.455Z,85.91
2022-11-02T07:36:13.269Z,85.69
2022-11-02T07:38:41.071Z,85.11
2022-11-02T07:41:10.353Z,84.95
2022-11-02T07:43:41.371Z,84.63
2022-11-02T07:46:12.428Z,84.34
2022-11-02T07:48:40.234Z,84.18
2022-11-02T07:51:08.187Z,84.12
2022-11-02T07:53:36.020Z,83.85
2022-11-02T07:56:04.442Z,83.69
2022-11-02T07:58:33.892Z,82.38
2022-11-02T08:01:02.594Z,82.34
2022-11-02T08:03:32.101Z,81.87
2022-11-02T08:06:02.753Z,81.39
2022-11-02T08:08:31.004Z,81.36
2022-11-02T08:11:05.680Z,81.06
2022-11-02T08:13:35.736Z,81.10
2022-11-02T08:16:03.699Z,81.27
2022-11-02T08:18:32.836Z,80.35
2022-11-02T08:21:00.904Z,80.12
2022-11-02T08:23:28.917Z,79.73
2022-11-02T08:26:00.275Z,79.53
2022-11-02T08:28:31.554Z,78.64
2022-11-02T08:31:01.049Z,77.17
2022-11-02T08:33:29.209Z,77.76
2022-11-02T08:36:03.679Z,77.16
2022-11-02T08:38:31.617Z,76.47
2022-11-02T08:40:59.694Z,75.64
2022-11-02T08:43:27.794Z,75.80
2022-11-02T08:46:16.177Z,76.04
2022-11-02T08:48:45.975Z,74.85
2022-11-02T08:51:14.044Z,74.06
2022-11-02T08:53:50.256Z,74.53
2022-11-02T08:56:22.834Z,75.16
2022-11-02T08:58:50.676Z,74.92
2022-11-02T09:01:18.614Z,74.39
2022-11-02T09:03:48.089Z,73.20
2022-11-02T09:06:16.056Z,73.15
2022-11-02T09:08:44.094Z,72.48
2022-11-02T09:11:12.588Z,72.27
2022-11-02T09:13:40.906Z,72.14
2022-11-02T09:16:09.480Z,70.86
2022-11-02T09:18:38.642Z,70.32
2022-11-02T09:21:09.325Z,69.87
2022-11-02T09:23:37.318Z,69.54
2022-11-02T09:26:05.204Z,68.94
2022-11-02T09:28:33.348Z,68.83
2022-11-02T09:31:01.194Z,67.61
2022-11-02T09:33:29.851Z,67.64
2022-11-02T09:36:02.674Z,68.00
2022-11-02T09:38:32.192Z,68.01
2022-11-02T09:41:07.599Z,68.54
2022-11-02T09:43:43.749Z,68.23
2022-11-02T09:46:16.837Z,67.64
2022-11-02T09:48:49.338Z,67.21
2022-11-02T09:51:20.777Z,65.61
2022-11-02T09:54:18.260Z,64.59
2022-11-02T09:56:47.621Z,63.53
2022-11-02T09:59:17.645Z,62.01
2022-11-02T10:02:02.726Z,61.75
2022-11-02T10:04:44.403Z,60.67
2022-11-02T10:07:24.585Z,61.14
2022-11-02T10:09:57.596Z,61.08
2022-11-02T10:12:35.471Z,61.23
2022-11-02T10:15:06.869Z,61.91
2022-11-02T10:17:39.704Z,61.54
2022-11-02T10:20:17.909Z,59.95
2022-11-02T10:22:47.030Z,58.65
2022-11-02T10:25:20.372Z,60.34
2022-11-02T10:27:53.776Z,59.25
2022-11-02T10:30:22.804Z,59.91
2022-11-02T10:32:55.704Z,60.66
2022-11-02T10:35:45.922Z,61.19
2022-11-02T10:38:31.520Z,59.78
2022-11-02T10:41:14.733Z,60.57
2022-11-02T10:43:56.669Z,60.87
2022-11-02T10:46:41.082Z,59.46
2022-11-02T10:49:16.010Z,60.16
2022-11-02T10:51:43.999Z,59.94
2022-11-02T10:54:17.674Z,59.74
2022-11-02T10:56:51.207Z,60.23
2022-11-02T10:59:23.536Z,59.68
2022-11-02T11:02:07.215Z,59.24
2022-11-02T11:04:38.156Z,59.08
2022-11-02T11:07:07.998Z,58.28
2022-11-02T11:09:44.211Z,57.84
2022-11-02T11:12:20.905Z,58.03
2022-11-02T11:20:36.596Z,56.83
2022-11-02T11:23:19.242Z,57.00
2022-11-02T11:25:59.339Z,56.75
2022-11-02T11:28:31.383Z,56.80
2022-11-02T11:31:06.126Z,56.46
2022-11-02T11:33:42.124Z,57.25
2022-11-02T11:36:10.632Z,57.50
2022-11-02T11:38:47.992Z,56.34
2022-11-02T11:41:16.032Z,57.01
2022-11-02T11:43:47.747Z,56.14
2022-11-02T11:46:17.087Z,54.68
2022-11-02T11:48:50.126Z,52.65
2022-11-02T11:51:41.640Z,52.75
2022-11-02T11:54:22.190Z,50.52
2022-11-02T11:56:52.136Z,51.03
2022-11-02T11:59:31.536Z,49.74
2022-11-02T12:02:01.008Z,48.96
2022-11-02T12:04:32.071Z,49.46
2022-11-02T12:07:16.469Z,48.66
2022-11-02T12:09:51.370Z,51.67
2022-11-02T12:12:28.389Z,51.58
2022-11-02T12:15:10.436Z,50.70
2022-11-02T12:17:56.561Z,50.97
2022-11-02T12:20:51.734Z,50.31
2022-11-02T12:23:44.583Z,51.64
2022-11-02T12:26:27.090Z,52.61
2022-11-02T12:29:08.574Z,52.80
2022-11-02T12:31:41.146Z,52.70
2022-11-02T12:34:24.841Z,51.54
2022-11-02T12:40:13.031Z,50.34
2022-11-02T12:42:53.737Z,50.17
2022-11-02T12:45:29.126Z,50.23
2022-11-02T12:48:01.438Z,50.04
2022-11-02T12:50:46.986Z,50.31
2022-11-02T12:53:28.848Z,49.86
2022-11-02T12:56:01.320Z,49.75
2022-11-02T12:58:31.606Z,49.70
2022-11-02T13:01:13.263Z,48.69
2022-11-02T13:03:50.619Z,48.60
2022-11-02T13:06:26.068Z,50.33
2022-11-02T13:08:58.906Z,49.76
2022-11-02T13:11:33.373Z,49.55
2022-11-02T13:14:06.099Z,50.02
2022-11-02T13:16:42.024Z,50.55
2022-11-02T13:19:18.021Z,50.83
2022-11-02T13:21:49.952Z,50.56
2022-11-02T13:24:26.425Z,51.06
2022-11-02T13:27:14.197Z,50.32
2022-11-02T13:29:48.193Z,49.61
2022-11-02T13:32:22.178Z,49.78
2022-11-02T13:34:55.781Z,49.92
2022-11-02T13:37:29.583Z,48.59
2022-11-02T13:40:00.196Z,48.55
2022-11-02T13:42:52.052Z,48.35
2022-11-02T13:45:36.185Z,49.50
2022-11-02T13:48:39.695Z,48.16
2022-11-02T13:51:24.841Z,48.27
2022-11-02T13:53:57.352Z,48.79
2022-11-02T13:56:28.847Z,49.38
2022-11-02T13:59:05.375Z,49.65
2022-11-02T14:01:37.271Z,49.71
2022-11-02T14:04:09.311Z,49.71
2022-11-02T14:06:49.507Z,49.54
2022-11-02T14:09:29.965Z,49.43
2022-11-02T14:12:30.740Z,49.71
2022-11-02T14:15:48.043Z,50.13
2022-11-02T14:18:31.258Z,50.09
2022-11-02T14:21:00.194Z,50.12
2022-11-02T14:23:39.016Z,49.98
2022-11-02T14:26:33.345Z,50.49
2022-11-02T14:29:06.531Z,50.76
2022-11-02T14:31:53.508Z,51.21
2022-11-02T14:34:50.976Z,51.26
2022-11-02T14:37:40.145Z,49.87
2022-11-02T14:40:56.324Z,50.86
2022-11-02T14:43:54.484Z,50.98
2022-11-02T14:46:36.928Z,51.61
2022-11-02T14:49:06.361Z,51.16
2022-11-02T14:51:37.577Z,51.16
2022-11-02T14:54:15.939Z,51.28
2022-11-02T14:56:57.464Z,51.62
2022-11-02T14:59:29.839Z,51.43
2022-11-02T15:02:00.234Z,51.26
2022-11-02T15:04:31.044Z,51.90
2022-11-02T15:07:02.462Z,52.38
2022-11-02T15:09:56.567Z,51.76
2022-11-02T15:12:32.030Z,51.70
2022-11-02T15:15:03.545Z,52.29
2022-11-02T15:17:55.160Z,52.61
2022-11-02T15:20:31.677Z,52.78
2022-11-02T15:23:26.623Z,52.73
2022-11-02T15:26:00.188Z,52.91
2022-11-02T15:28:33.838Z,53.33
2022-11-02T15:31:07.174Z,53.19
2022-11-02T15:33:51.832Z,53.05
2022-11-02T15:36:24.127Z,53.54
2022-11-02T15:38:54.109Z,53.48
2022-11-02T15:41:31.658Z,53.96
2022-11-02T15:44:23.281Z,54.53
2022-11-02T15:47:03.279Z,54.49
2022-11-02T15:49:54.316Z,54.48
2022-11-02T15:52:30.441Z,54.65
2022-11-02T15:55:07.316Z,54.91
2022-11-02T15:57:44.972Z,55.30
2022-11-02T16:00:18.136Z,55.99
2022-11-02T16:02:48.642Z,56.08
2022-11-02T16:05:21.522Z,56.43
2022-11-02T16:08:10.014Z,56.82
2022-11-02T16:10:38.887Z,57.28
2022-11-02T16:13:16.824Z,57.30
2022-11-02T16:15:45.620Z,57.64
2022-11-02T16:18:24.855Z,57.45
2022-11-02T16:20:56.022Z,58.14
2022-11-02T16:23:26.588Z,58.42
2022-11-02T16:25:57.051Z,58.19
2022-11-02T16:28:26.607Z,58.37
2022-11-02T16:31:15.644Z,58.82
2022-11-02T16:33:48.192Z,59.31
2022-11-02T16:36:20.032Z,59.56
2022-11-02T16:38:52.686Z,59.64
2022-11-02T16:41:23.146Z,60.25
2022-11-02T16:43:51.905Z,60.25
2022-11-02T16:46:30.455Z,60.22
2022-11-02T16:49:15.180Z,60.60
2022-11-02T16:51:52.149Z,61.03
2022-11-02T16:54:27.884Z,60.93
2022-11-02T16:56:58.134Z,61.32
2022-11-02T16:59:26.416Z,61.78
2022-11-02T17:02:00.094Z,62.60
2022-11-02T17:04:31.650Z,63.19
2022-11-02T17:07:12.730Z,63.55
2022-11-02T17:09:41.356Z,66.31
2022-11-02T17:12:15.592Z,66.13
2022-11-02T17:14:45.735Z,65.89
2022-11-02T17:17:33.178Z,65.44
2022-11-02T17:20:15.987Z,66.17
2022-11-02T17:22:53.930Z,67.36
2022-11-02T17:25:24.307Z,69.23
2022-11-02T17:27:53.739Z,70.53
2022-11-02T17:30:44.566Z,72.09
2022-11-02T17:33:32.836Z,72.95
2022-11-02T17:36:06.375Z,73.99
2022-11-02T17:38:36.102Z,75.20
2022-11-02T17:41:24.589Z,75.11
2022-11-02T17:43:52.091Z,75.68
2022-11-02T17:46:20.261Z,75.95
2022-11-02T17:48:48.064Z,76.60
2022-11-02T17:51:16.273Z,76.33
2022-11-02T17:53:45.363Z,76.79
2022-11-02T17:56:14.145Z,77.33
2022-11-02T17:58:53.079Z,78.38
2022-11-02T18:01:21.143Z,78.46
2022-11-02T18:03:49.090Z,78.85
2022-11-02T18:06:16.945Z,79.34
2022-11-02T18:09:04.135Z,79.20
2022-11-02T18:11:32.404Z,79.53
2022-11-02T18:14:00.684Z,79.85
2022-11-02T18:16:29.271Z,79.74
2022-11-02T18:18:57.067Z,79.72
2022-11-02T18:21:25.118Z,79.66
2022-11-02T18:23:54.377Z,80.06
2022-11-02T18:26:22.147Z,80.29
2022-11-02T18:28:50.216Z,80.80
2022-11-02T18:31:18.217Z,80.84
2022-11-02T18:33:46.359Z,81.22
2022-11-02T18:36:14.144Z,81.16
2022-11-02T18:38:42.272Z,82.35
2022-11-02T18:41:25.958Z,81.66
2022-11-02T18:43:56.879Z,81.88
2022-11-02T18:46:30.729Z,81.81
2022-11-02T18:48:59.188Z,81.08
2022-11-02T18:51:27.421Z,80.87
2022-11-02T18:53:56.995Z,81.46
2022-11-02T18:56:26.564Z,81.93
2022-11-02T18:58:56.415Z,82.63
2022-11-02T19:01:26.176Z,82.27
2022-11-02T19:03:56.524Z,82.36
2022-11-02T19:06:43.855Z,82.55
2022-11-02T19:09:19.433Z,82.78
2022-11-02T19:11:53.866Z,82.71
2022-11-02T19:14:23.172Z,83.06
2022-11-02T19:16:51.293Z,83.36
2022-11-02T19:19:22.518Z,83.91
2022-11-02T19:21:50.380Z,84.26
2022-11-02T19:24:18.684Z,84.62
2022-11-02T19:26:48.079Z,84.50
2022-11-02T19:29:17.046Z,84.11
2022-11-02T19:31:45.510Z,83.82
2022-11-02T19:34:13.299Z,83.97
2022-11-02T19:36:41.432Z,84.52
2022-11-02T19:39:09.920Z,84.70
2022-11-02T19:41:38.337Z,85.12
2022-11-02T19:44:08.079Z,85.07
2022-11-02T19:46:35.963Z,85.15
2022-11-02T19:49:03.894Z,85.28
2022-11-02T19:51:32.412Z,84.90
2022-11-02T19:54:01.860Z,85.57
2022-11-02T19:56:31.578Z,85.36
2022-11-02T19:58:59.728Z,85.57
2022-11-02T20:01:30.637Z,85.52
2022-11-02T20:04:00.007Z,85.28
2022-11-02T20:06:29.995Z,84.73
2022-11-02T20:08:59.604Z,85.11
2022-11-02T20:11:28.584Z,85.04
2022-11-02T20:14:00.689Z,85.15
2022-11-02T20:16:30.361Z,85.07
2022-11-02T20:18:58.956Z,85.76
2022-11-02T20:21:33.264Z,85.67
2022-11-02T20:24:04.485Z,86.06
2022-11-02T20:26:34.393Z,86.06
2022-11-02T20:29:03.553Z,85.51
2022-11-02T20:31:34.989Z,85.34
2022-11-02T20:34:04.115Z,85.86
2022-11-02T20:36:32.204Z,85.73
2022-11-02T20:39:00.248Z,86.45
2022-11-02T20:41:28.206Z,85.69
2022-11-02T20:43:56.693Z,86.21
2022-11-02T20:46:42.571Z,86.07
2022-11-02T20:49:21.820Z,86.14
2022-11-02T20:51:57.551Z,85.98
2022-11-02T20:54:26.662Z,86.08
2022-11-02T20:56:54.534Z,85.83
2022-11-02T20:59:22.327Z,86.46
2022-11-02T21:01:50.633Z,86.55
2022-11-02T21:04:21.482Z,86.75
2022-11-02T21:06:50.252Z,86.67
2022-11-02T21:09:18.223Z,86.62
2022-11-02T21:12:03.499Z,86.83
2022-11-02T21:14:31.444Z,86.68
2022-11-02T21:16:59.369Z,86.69
2022-11-02T21:19:28.778Z,86.85
2022-11-02T21:21:59.659Z,86.78
2022-11-02T21:24:28.970Z,86.75
2022-11-02T21:26:56.825Z,86.49
2022-11-02T21:29:24.675Z,86.62
2022-11-02T21:31:52.467Z,87.28
2022-11-02T21:34:20.336Z,87.20
2022-11-02T21:36:49.687Z,87.32
2022-11-02T21:39:17.668Z,86.94
2022-11-02T21:41:45.568Z,87.12
2022-11-02T21:44:13.429Z,86.94
2022-11-02T21:46:41.228Z,87.12
2022-11-02T21:49:09.170Z,86.58
2022-11-02T21:51:38.393Z,86.78
2022-11-02T21:54:07.703Z,86.31
2022-11-02T21:56:36.102Z,86.45
2022-11-02T21:59:05.336Z,86.36
2022-11-02T22:01:47.921Z,87.36
2022-11-02T22:04:19.426Z,87.20
2022-11-02T22:06:47.439Z,87.32
2022-11-02T22:09:16.816Z,87.46
2022-11-02T22:11:45.164Z,86.91
2022-11-02T22:14:12.588Z,86.31
2022-11-02T22:16:42.155Z,86.70
2022-11-02T22:19:12.308Z,86.91
2022-11-02T22:21:41.979Z,87.47
2022-11-02T22:24:11.214Z,87.25
2022-11-02T22:26:41.469Z,87.16
2022-11-02T22:29:09.976Z,86.68
2022-11-02T22:31:39.650Z,86.46
2022-11-02T22:34:09.118Z,85.81
2022-11-02T22:36:38.161Z,86.22
2022-11-02T22:39:07.689Z,86.20
2022-11-02T22:41:37.670Z,85.79
2022-11-02T22:44:08.624Z,85.60
2022-11-02T22:46:39.021Z,85.31
2022-11-02T22:49:08.765Z,85.29
2022-11-02T22:51:38.615Z,85.93
2022-11-02T22:54:08.774Z,85.16
2022-11-02T22:56:37.167Z,85.30
2022-11-02T22:59:06.613Z,85.21
2022-11-02T23:01:35.810Z,85.90
2022-11-02T23:04:03.933Z,85.90
2022-11-02T23:06:32.219Z,86.12
2022-11-02T23:09:00.541Z,85.80
2022-11-02T23:11:30.626Z,85.75
2022-11-02T23:14:00.096Z,85.48
2022-11-02T23:16:31.017Z,85.52
2022-11-02T23:19:27.943Z,85.72
2022-11-02T23:22:16.053Z,86.89
2022-11-02T23:25:03.475Z,86.97
2022-11-02T23:27:32.028Z,86.41
2022-11-02T23:30:17.552Z,86.16
2022-11-02T23:32:46.667Z,86.39
2022-11-02T23:35:31.870Z,86.10
2022-11-02T23:38:04.741Z,86.25
2022-11-02T23:40:33.527Z,86.11
2022-11-02T23:43:01.581Z,85.97
2022-11-02T23:45:29.408Z,85.80
2022-11-02T23:48:00.498Z,85.62
2022-11-02T23:50:48.837Z,85.68
2022-11-02T23:53:36.381Z,86.38
2022-11-02T23:56:22.616Z,85.83
2022-11-02T23:59:06.389Z,85.93
